Terminal Aerodrome Forecast
Issued by NWS

Home | Current Version | Previous Version | Text Only | Print | Product List | Glossary On
Versions: 1 2 3 4 5 6 7 8 9 10 11 12
000
FTUS46 KSEW 160500
TAFOLM
TAF
KOLM 160520Z 1606/1706 VRB03KT P6SM SCT100 BKN200
     FM161100 19005KT 4SM BR BKN003 BKN150
      TEMPO 1612/1616 1SM BR VV002
     FM162200 22007KT P6SM SCT040 BKN120=

USA.gov is the U.S. government's official web portal to all federal, state and local government web resources and services.